Time;durP1;ratioP1;P1;durP2;ratioP2;P2;SDS_P1;SDS_P2;PMS_P1;PMS_P2;Temp;Humidity;BMP_temperature;BMP_pressure;BME280_temperature;BME280_humidity;BME280_pressure;Samples;Min_cycle;Max_cycle;Signal;HPM_P1;HPM_P2
2021/01/15 00:00:17;;;;;;;4.78;2.42;;;17.00;52.80;;;;;;5113834;28;20030;-70
2021/01/15 00:02:43;;;;;;;4.68;2.05;;;17.00;52.80;;;;;;5113902;28;20038;-70
2021/01/15 00:05:09;;;;;;;4.47;2.33;;;17.00;52.80;;;;;;5113699;28;20110;-70
2021/01/15 00:07:34;;;;;;;5.95;2.08;;;16.90;52.80;;;;;;5113606;28;20061;-70
2021/01/15 00:10:00;;;;;;;3.80;2.05;;;16.90;52.80;;;;;;5114422;28;20024;-70
2021/01/15 00:12:26;;;;;;;5.55;2.78;;;16.90;52.80;;;;;;5114305;28;20044;-70
2021/01/15 00:14:51;;;;;;;4.90;2.05;;;16.90;52.70;;;;;;5114062;28;20055;-70
2021/01/15 00:17:17;;;;;;;5.18;2.63;;;16.80;52.60;;;;;;5114357;28;20080;-71
2021/01/15 00:19:42;;;;;;;3.83;2.08;;;16.80;52.60;;;;;;5113902;28;20019;-71
2021/01/15 00:22:08;;;;;;;4.93;2.08;;;16.80;52.70;;;;;;5113735;28;20028;-70
2021/01/15 00:24:34;;;;;;;5.90;1.90;;;16.70;52.60;;;;;;5113552;28;20099;-71
2021/01/15 00:26:59;;;;;;;4.85;2.45;;;16.70;52.60;;;;;;5114356;28;20054;-71
2021/01/15 00:29:27;;;;;;;5.10;2.10;;;16.70;52.70;;;;;;5113988;28;20031;-71
2021/01/15 00:31:52;;;;;;;4.00;2.22;;;16.70;52.60;;;;;;5113072;28;20035;-69
2021/01/15 00:34:18;;;;;;;5.25;2.10;;;16.60;52.50;;;;;;5095695;28;20380;-69
2021/01/15 00:36:45;;;;;;;5.40;1.95;;;16.60;52.60;;;;;;5113428;28;20057;-69
2021/01/15 00:39:15;;;;;;;5.22;2.75;;;16.60;52.50;;;;;;5113321;28;20038;-69
2021/01/15 00:41:43;;;;;;;3.80;2.40;;;16.60;52.50;;;;;;5113707;28;20097;-69
2021/01/15 00:44:09;;;;;;;4.70;2.42;;;16.50;52.50;;;;;;5112904;28;20032;-69
2021/01/15 00:46:35;;;;;;;3.60;2.10;;;16.50;52.50;;;;;;5113428;28;20511;-69
2021/01/15 00:49:06;;;;;;;4.43;2.20;;;16.50;52.50;;;;;;5095491;28;20032;-69
2021/01/15 00:51:35;;;;;;;4.15;2.33;;;16.40;52.40;;;;;;5113372;28;20053;-69
2021/01/15 00:54:05;;;;;;;5.28;2.55;;;16.40;52.40;;;;;;5113957;28;20027;-69
2021/01/15 00:56:31;;;;;;;5.13;2.05;;;16.40;52.40;;;;;;5113790;28;20080;-69
2021/01/15 00:58:56;;;;;;;3.88;2.08;;;16.40;52.40;;;;;;5112842;28;20451;-69
2021/01/15 01:01:24;;;;;;;6.97;2.50;;;16.30;52.40;;;;;;5112794;28;20110;-69
2021/01/15 01:03:51;;;;;;;4.68;2.35;;;16.30;52.40;;;;;;5113232;28;20020;-69
2021/01/15 01:06:21;;;;;;;4.25;2.47;;;16.30;52.40;;;;;;5113727;28;20408;-69
2021/01/15 01:08:48;;;;;;;4.40;2.05;;;16.30;52.30;;;;;;5112353;28;20114;-70
2021/01/15 01:11:21;;;;;;;5.90;2.78;;;16.20;52.30;;;;;;5112685;28;20529;-69
2021/01/15 01:13:52;;;;;;;4.97;2.45;;;16.20;52.30;;;;;;5112436;28;20020;-69
2021/01/15 01:16:24;;;;;;;3.63;2.30;;;16.20;52.20;;;;;;5112413;28;20031;-69
2021/01/15 01:18:50;;;;;;;7.00;2.85;;;16.20;52.30;;;;;;5093999;28;20024;-69
2021/01/15 01:21:16;;;;;;;5.38;3.30;;;16.10;52.20;;;;;;5113036;28;20027;-69
2021/01/15 01:23:42;;;;;;;4.03;2.58;;;16.10;52.30;;;;;;5112559;28;20092;-69
2021/01/15 01:26:08;;;;;;;3.60;2.60;;;16.10;52.30;;;;;;5094150;28;20028;-70
2021/01/15 01:28:34;;;;;;;4.05;2.55;;;16.10;52.30;;;;;;5112276;28;20070;-70
2021/01/15 01:31:00;;;;;;;3.95;2.75;;;16.00;52.20;;;;;;5112355;28;20062;-69
2021/01/15 01:33:25;;;;;;;5.60;3.00;;;16.00;52.20;;;;;;5112865;28;20043;-69
2021/01/15 01:35:51;;;;;;;5.43;2.88;;;16.00;52.10;;;;;;5112654;28;20106;-69
2021/01/15 01:38:17;;;;;;;5.80;2.92;;;16.00;52.20;;;;;;5112471;28;20036;-69
2021/01/15 01:40:46;;;;;;;8.07;3.50;;;16.00;52.20;;;;;;5104377;28;20024;-70
2021/01/15 01:43:12;;;;;;;5.43;3.35;;;15.90;52.10;;;;;;5112353;28;20031;-71
2021/01/15 01:45:38;;;;;;;5.75;2.97;;;15.90;52.10;;;;;;5111574;28;20031;-70
2021/01/15 01:48:05;;;;;;;5.25;3.20;;;15.90;52.10;;;;;;5112073;28;20034;-69
2021/01/15 01:50:31;;;;;;;5.97;3.67;;;15.90;52.10;;;;;;5112902;28;20153;-69
2021/01/15 01:52:58;;;;;;;6.00;3.72;;;15.80;52.10;;;;;;5111994;28;20039;-69
2021/01/15 01:55:24;;;;;;;6.57;3.00;;;15.80;52.10;;;;;;5112144;28;20046;-70
2021/01/15 01:57:50;;;;;;;5.60;3.35;;;15.80;52.10;;;;;;5111703;28;20479;-70
2021/01/15 02:00:16;;;;;;;6.50;3.40;;;15.80;52.20;;;;;;5111868;28;20022;-69
2021/01/15 02:02:42;;;;;;;4.38;2.88;;;15.80;52.10;;;;;;5112153;28;20595;-69
2021/01/15 02:05:09;;;;;;;6.03;4.00;;;15.70;52.10;;;;;;5112323;28;20382;-69
2021/01/15 02:07:35;;;;;;;4.53;3.40;;;15.70;52.20;;;;;;5111383;28;20441;-69
2021/01/15 02:10:16;;;;;;;5.75;3.63;;;15.70;52.10;;;;;;5111878;28;20051;-69
2021/01/15 02:12:56;;;;;;;5.78;3.25;;;15.70;52.10;;;;;;5110986;28;20498;-69
2021/01/15 02:15:30;;;;;;;6.95;3.50;;;15.70;52.10;;;;;;5111481;28;20084;-69
2021/01/15 02:18:05;;;;;;;6.10;3.72;;;15.60;52.10;;;;;;5111928;28;20059;-70
2021/01/15 02:20:30;;;;;;;5.38;3.60;;;15.60;52.20;;;;;;5112380;28;20034;-69
2021/01/15 02:23:20;;;;;;;6.30;3.50;;;15.60;52.10;;;;;;5111021;28;20027;-68
2021/01/15 02:26:04;;;;;;;5.60;3.20;;;15.60;52.10;;;;;;5111290;28;20039;-69
2021/01/15 02:29:08;;;;;;;6.85;3.85;;;15.50;52.10;;;;;;5111749;28;20020;-69
2021/01/15 02:31:46;;;;;;;5.55;3.83;;;15.50;52.10;;;;;;5111102;28;20035;-70
2021/01/15 02:34:33;;;;;;;6.13;3.42;;;15.50;52.10;;;;;;5111460;28;20437;-70
2021/01/15 02:36:59;;;;;;;4.95;3.22;;;15.50;52.10;;;;;;5111700;28;20551;-69
2021/01/15 02:39:24;;;;;;;6.03;3.60;;;15.50;52.10;;;;;;5111004;28;20023;-69
2021/01/15 02:41:50;;;;;;;5.47;3.45;;;15.40;52.00;;;;;;5110875;28;20080;-69
2021/01/15 02:44:17;;;;;;;5.57;3.55;;;15.40;52.00;;;;;;5111039;28;20031;-69
2021/01/15 02:46:54;;;;;;;5.75;3.33;;;15.40;52.10;;;;;;5111340;28;20031;-69
2021/01/15 02:49:20;;;;;;;4.40;3.13;;;15.40;52.00;;;;;;5111506;28;20483;-70
2021/01/15 02:51:46;;;;;;;5.40;3.13;;;15.40;52.00;;;;;;5110695;28;20039;-71
2021/01/15 02:54:12;;;;;;;5.22;3.38;;;15.40;52.00;;;;;;5111195;28;20028;-70
2021/01/15 02:56:38;;;;;;;4.43;3.33;;;15.30;52.50;;;;;;5110654;28;20375;-70
2021/01/15 02:59:05;;;;;;;4.82;3.20;;;15.30;52.00;;;;;;5111386;28;20072;-70
2021/01/15 03:01:52;;;;;;;5.53;3.90;;;15.30;52.00;;;;;;5111116;28;20020;-71
2021/01/15 03:04:33;;;;;;;7.63;3.97;;;15.30;51.90;;;;;;5110872;28;20122;-69
2021/01/15 03:07:02;;;;;;;5.18;3.35;;;15.30;52.00;;;;;;5111618;28;20035;-69
2021/01/15 03:09:32;;;;;;;5.05;3.38;;;15.30;52.10;;;;;;5114060;28;20020;-69
2021/01/15 03:12:01;;;;;;;5.47;3.20;;;15.20;51.90;;;;;;5115098;28;20038;-70
2021/01/15 03:14:30;;;;;;;5.95;3.50;;;15.20;51.90;;;;;;5115289;28;20020;-69
2021/01/15 03:16:58;;;;;;;3.92;2.45;;;15.20;51.90;;;;;;5115356;28;20504;-70
2021/01/15 03:19:24;;;;;;;5.53;2.97;;;15.20;51.90;;;;;;5115207;28;20020;-70
2021/01/15 03:21:50;;;;;;;5.15;2.95;;;15.20;51.90;;;;;;5114805;28;20077;-69
2021/01/15 03:24:16;;;;;;;4.68;2.83;;;15.20;52.40;;;;;;5115123;28;20118;-70
2021/01/15 03:26:42;;;;;;;6.07;3.15;;;15.10;51.80;;;;;;5114960;28;20368;-69
2021/01/15 03:29:13;;;;;;;4.57;3.03;;;15.10;51.80;;;;;;5114832;28;20035;-71
2021/01/15 03:31:42;;;;;;;6.78;3.53;;;15.10;51.80;;;;;;5114383;28;20035;-69
2021/01/15 03:34:09;;;;;;;5.40;3.65;;;15.10;51.80;;;;;;5114344;28;20027;-69
2021/01/15 03:36:35;;;;;;;4.50;3.00;;;15.10;51.80;;;;;;5114919;28;20123;-69
2021/01/15 03:39:02;;;;;;;4.20;3.00;;;15.10;51.80;;;;;;5114479;28;20030;-69
2021/01/15 03:41:27;;;;;;;4.28;2.92;;;15.10;51.80;;;;;;5115017;28;20062;-69
2021/01/15 03:43:53;;;;;;;6.28;2.72;;;15.00;51.70;;;;;;5114442;28;20043;-69
2021/01/15 03:46:19;;;;;;;4.85;3.05;;;15.00;51.80;;;;;;5114519;28;20027;-69
2021/01/15 03:48:48;;;;;;;5.07;3.33;;;15.00;51.80;;;;;;5114644;28;20506;-68
2021/01/15 03:51:14;;;;;;;4.53;2.88;;;15.00;51.80;;;;;;5114873;28;20024;-69
2021/01/15 03:53:44;;;;;;;6.40;2.83;;;15.00;51.80;;;;;;5114198;28;20083;-70
2021/01/15 03:56:10;;;;;;;5.85;3.22;;;15.00;51.80;;;;;;5114647;28;20035;-70
2021/01/15 03:58:36;;;;;;;9.48;3.05;;;15.00;51.90;;;;;;5114621;28;20027;-71
2021/01/15 04:01:02;;;;;;;3.65;2.70;;;15.00;51.80;;;;;;5113925;28;20031;-71
2021/01/15 04:03:27;;;;;;;7.28;2.90;;;15.00;51.90;;;;;;5114691;28;20387;-70
2021/01/15 04:05:53;;;;;;;5.00;2.55;;;14.90;51.80;;;;;;5113529;28;20399;-70
2021/01/15 04:08:18;;;;;;;4.00;2.22;;;14.90;51.90;;;;;;5114540;28;20106;-71
2021/01/15 04:10:44;;;;;;;6.38;3.03;;;14.90;51.90;;;;;;5113627;28;20487;-70
2021/01/15 04:13:10;;;;;;;4.68;2.88;;;14.90;51.90;;;;;;5113639;28;20036;-69
2021/01/15 04:15:35;;;;;;;5.15;3.00;;;14.90;51.90;;;;;;5095816;28;20087;-69
2021/01/15 04:18:01;;;;;;;3.50;2.70;;;14.90;51.90;;;;;;5114688;28;20027;-69
2021/01/15 04:20:27;;;;;;;6.13;2.95;;;14.90;52.00;;;;;;5113857;28;20026;-69
2021/01/15 04:22:52;;;;;;;4.63;2.58;;;14.80;51.90;;;;;;5113659;28;20034;-69
2021/01/15 04:25:18;;;;;;;3.95;2.50;;;14.80;51.90;;;;;;5114140;28;20069;-70
2021/01/15 04:27:43;;;;;;;4.15;2.63;;;14.80;52.50;;;;;;5114030;28;20045;-70
2021/01/15 04:30:11;;;;;;;3.45;2.53;;;14.90;52.00;;;;;;5113682;28;20088;-70
2021/01/15 04:32:57;;;;;;;4.95;2.95;;;14.80;52.00;;;;;;5113329;28;20556;-69
2021/01/15 04:35:23;;;;;;;5.03;3.00;;;14.80;52.50;;;;;;5112921;28;20038;-69
2021/01/15 04:37:48;;;;;;;5.32;2.65;;;14.80;52.00;;;;;;5113368;28;20524;-68
2021/01/15 04:40:15;;;;;;;4.60;2.83;;;14.80;52.00;;;;;;5113439;28;20019;-69
2021/01/15 04:42:42;;;;;;;4.38;2.60;;;14.80;52.00;;;;;;5113396;28;20472;-69
2021/01/15 04:45:13;;;;;;;5.65;3.55;;;14.80;52.00;;;;;;5113898;28;20475;-69
2021/01/15 04:47:46;;;;;;;5.22;2.35;;;14.80;52.00;;;;;;5113328;28;20472;-69
2021/01/15 04:50:17;;;;;;;3.80;2.53;;;14.80;52.00;;;;;;5113459;28;20027;-69
2021/01/15 04:52:52;;;;;;;6.78;2.88;;;14.70;52.00;;;;;;5113419;28;20169;-69
2021/01/15 04:55:25;;;;;;;4.40;2.50;;;14.70;52.00;;;;;;5112056;28;20027;-69
2021/01/15 04:57:53;;;;;;;4.90;2.55;;;14.70;52.00;;;;;;5113118;28;20059;-68
2021/01/15 05:00:21;;;;;;;3.28;2.22;;;14.70;52.00;;;;;;5113100;28;20031;-69
2021/01/15 05:02:48;;;;;;;3.67;2.92;;;14.70;52.00;;;;;;5112553;28;20035;-69
2021/01/15 05:05:22;;;;;;;5.18;2.47;;;14.70;52.00;;;;;;5113216;28;20023;-69
2021/01/15 05:08:00;;;;;;;4.10;2.60;;;14.70;52.10;;;;;;5113043;28;20031;-69
2021/01/15 05:10:29;;;;;;;4.22;2.55;;;14.60;52.00;;;;;;5112611;28;20185;-68
2021/01/15 05:12:55;;;;;;;4.43;3.10;;;14.70;52.10;;;;;;5112958;28;20063;-69
2021/01/15 05:15:24;;;;;;;5.63;2.83;;;14.70;52.10;;;;;;5094225;28;20107;-70
2021/01/15 05:17:51;;;;;;;5.60;3.05;;;14.60;52.00;;;;;;5112126;28;20070;-69
2021/01/15 05:20:20;;;;;;;5.55;2.72;;;14.60;52.00;;;;;;5094614;28;20028;-68
2021/01/15 05:22:45;;;;;;;5.18;3.20;;;14.60;52.00;;;;;;5113100;28;20023;-69
2021/01/15 05:25:11;;;;;;;6.32;2.80;;;14.60;52.10;;;;;;5112838;28;20049;-68
2021/01/15 05:27:42;;;;;;;5.95;2.80;;;14.60;52.00;;;;;;5112580;28;20031;-69
2021/01/15 05:30:23;;;;;;;6.07;3.47;;;14.60;52.10;;;;;;5111989;28;20121;-68
2021/01/15 05:32:51;;;;;;;6.32;2.85;;;14.60;52.10;;;;;;5111922;28;20499;-71
2021/01/15 05:35:16;;;;;;;3.80;2.40;;;14.60;52.10;;;;;;5112896;28;20074;-69
2021/01/15 05:37:54;;;;;;;5.10;2.92;;;14.60;52.10;;;;;;5112671;28;20051;-70
2021/01/15 05:40:35;;;;;;;4.40;3.08;;;14.60;52.10;;;;;;5112434;28;20074;-69
2021/01/15 05:43:01;;;;;;;5.15;2.97;;;14.50;52.10;;;;;;5112806;28;20032;-70
2021/01/15 05:45:27;;;;;;;5.22;3.33;;;14.50;52.10;;;;;;5112481;28;20067;-71
2021/01/15 05:47:53;;;;;;;6.05;3.22;;;14.50;52.10;;;;;;5112132;28;20028;-68
2021/01/15 05:50:18;;;;;;;5.40;3.22;;;14.50;52.10;;;;;;5112321;28;20031;-69
2021/01/15 05:52:57;;;;;;;4.90;3.28;;;14.50;52.10;;;;;;5112255;28;20057;-70
2021/01/15 05:55:25;;;;;;;5.57;3.00;;;14.50;52.10;;;;;;5111694;28;20028;-69
2021/01/15 05:57:51;;;;;;;4.40;2.97;;;14.50;52.10;;;;;;5112047;28;20047;-69
2021/01/15 06:00:25;;;;;;;4.85;2.67;;;14.50;52.10;;;;;;5111385;28;20028;-69
2021/01/15 06:02:52;;;;;;;4.32;2.90;;;14.60;52.20;;;;;;5111873;28;20030;-69
2021/01/15 06:05:21;;;;;;;5.20;2.97;;;14.70;52.10;;;;;;5112011;28;20019;-69
2021/01/15 06:07:56;;;;;;;9.07;3.13;;;14.70;52.00;;;;;;5112032;28;20484;-71
2021/01/15 06:10:22;;;;;;;4.07;2.80;;;14.80;51.90;;;;;;5111885;28;20081;-71
2021/01/15 06:12:47;;;;;;;5.07;2.60;;;14.90;51.90;;;;;;5111946;28;20053;-71
2021/01/15 06:15:13;;;;;;;6.07;2.70;;;15.00;51.80;;;;;;5111115;28;20103;-71
2021/01/15 06:17:39;;;;;;;5.30;2.53;;;15.10;51.70;;;;;;5093171;28;20066;-71
2021/01/15 06:20:06;;;;;;;4.03;2.40;;;15.20;51.70;;;;;;5093348;28;20448;-69
2021/01/15 06:22:44;;;;;;;4.28;2.88;;;15.30;51.50;;;;;;5111544;28;20410;-70
2021/01/15 06:25:12;;;;;;;4.28;2.70;;;15.40;51.40;;;;;;5111529;28;20020;-68
2021/01/15 06:27:43;;;;;;;6.47;2.38;;;15.50;51.40;;;;;;5110932;28;20044;-68
2021/01/15 06:30:13;;;;;;;3.92;2.25;;;15.50;52.10;;;;;;5111451;28;20027;-68
2021/01/15 06:32:40;;;;;;;5.13;2.83;;;15.60;51.60;;;;;;5111781;28;20092;-68
2021/01/15 06:35:07;;;;;;;5.25;2.80;;;15.70;51.50;;;;;;5111050;28;20089;-68
2021/01/15 06:37:35;;;;;;;4.32;2.47;;;15.80;51.50;;;;;;5111517;28;20069;-69
2021/01/15 06:40:11;;;;;;;4.60;2.97;;;15.90;51.50;;;;;;5111811;28;20024;-69
2021/01/15 06:42:48;;;;;;;2.85;2.25;;;15.90;51.40;;;;;;5110248;28;20077;-71
2021/01/15 06:45:15;;;;;;;6.05;2.63;;;16.00;51.40;;;;;;5110225;28;20027;-70
2021/01/15 06:47:46;;;;;;;7.63;2.85;;;16.10;51.60;;;;;;5092404;28;20028;-69
2021/01/15 06:50:17;;;;;;;4.47;2.40;;;16.10;51.70;;;;;;5111668;28;20020;-69
2021/01/15 06:52:48;;;;;;;5.70;2.97;;;16.20;51.80;;;;;;5110340;28;20027;-69
2021/01/15 06:55:20;;;;;;;5.25;2.75;;;16.30;52.00;;;;;;5110436;28;20403;-69
2021/01/15 06:57:50;;;;;;;7.60;3.30;;;16.40;52.30;;;;;;5100865;28;20031;-68
2021/01/15 07:00:21;;;;;;;3.47;2.35;;;16.50;52.60;;;;;;5098079;28;20030;-69
2021/01/15 07:02:55;;;;;;;5.40;2.33;;;16.60;52.50;;;;;;5111453;28;20483;-69
2021/01/15 07:05:30;;;;;;;4.47;2.22;;;16.60;52.50;;;;;;5111552;28;20023;-70
2021/01/15 07:07:59;;;;;;;6.13;2.80;;;16.70;52.60;;;;;;5110611;28;20028;-69
2021/01/15 07:10:25;;;;;;;7.00;2.33;;;16.70;52.60;;;;;;5110855;28;20024;-71
2021/01/15 07:12:57;;;;;;;5.88;2.70;;;16.80;52.80;;;;;;5111114;28;20044;-70
2021/01/15 07:15:31;;;;;;;6.47;2.60;;;16.80;52.90;;;;;;5111514;28;20016;-69
2021/01/15 07:17:59;;;;;;;7.00;2.75;;;16.90;53.10;;;;;;5107050;28;20096;-69
2021/01/15 07:20:33;;;;;;;5.90;2.65;;;17.00;53.20;;;;;;5111413;28;20481;-71
2021/01/15 07:23:13;;;;;;;5.20;2.80;;;17.00;53.30;;;;;;5091715;28;20019;-70
2021/01/15 07:25:41;;;;;;;3.75;2.30;;;17.10;53.40;;;;;;5110267;28;20024;-69
2021/01/15 07:28:07;;;;;;;6.22;2.35;;;17.10;53.30;;;;;;5110408;28;20027;-69
2021/01/15 07:30:33;;;;;;;6.85;3.25;;;17.20;53.30;;;;;;5109914;28;20043;-69
2021/01/15 07:33:04;;;;;;;4.10;2.10;;;17.10;53.10;;;;;;5111277;28;20031;-69
2021/01/15 07:35:37;;;;;;;5.35;2.75;;;17.20;53.10;;;;;;5110832;28;20114;-69
2021/01/15 07:38:14;;;;;;;5.45;2.80;;;17.20;53.10;;;;;;5092760;28;20032;-69
2021/01/15 07:40:41;;;;;;;4.00;2.65;;;17.30;53.20;;;;;;5096560;28;20096;-70
2021/01/15 07:43:30;;;;;;;8.95;3.13;;;17.30;53.40;;;;;;5110538;28;20506;-70
2021/01/15 07:45:57;;;;;;;6.05;3.10;;;17.40;53.50;;;;;;5110208;28;20130;-70
2021/01/15 07:48:24;;;;;;;5.78;3.17;;;17.40;53.50;;;;;;5110146;28;20022;-72
2021/01/15 07:50:50;;;;;;;7.20;3.65;;;17.40;53.90;;;;;;5110695;28;20027;-69
2021/01/15 07:53:23;;;;;;;8.13;2.80;;;17.40;53.20;;;;;;5110964;28;20380;-69
2021/01/15 07:55:48;;;;;;;7.05;2.90;;;17.40;52.90;;;;;;5113375;28;20027;-69
2021/01/15 07:58:18;;;;;;;7.57;2.88;;;17.50;53.00;;;;;;5114049;28;20068;-70
2021/01/15 08:00:45;;;;;;;7.10;3.22;;;17.40;53.00;;;;;;5113791;28;20030;-69
2021/01/15 08:03:11;;;;;;;11.20;3.00;;;17.50;52.90;;;;;;5114001;28;20019;-69
2021/01/15 08:05:37;;;;;;;6.25;3.38;;;17.50;52.50;;;;;;5113897;28;20073;-69
2021/01/15 08:08:11;;;;;;;8.95;3.28;;;17.50;52.40;;;;;;5114605;28;20024;-70
2021/01/15 08:10:44;;;;;;;8.27;3.60;;;17.50;52.40;;;;;;5113785;28;20122;-69
2021/01/15 08:13:26;;;;;;;16.38;3.75;;;17.60;52.20;;;;;;5114348;28;20110;-69
2021/01/15 11:55:17;;;;;;;32.85;12.27;;;18.60;64.70;;;;;;5109091;27;20718;-72
2021/01/15 11:57:43;;;;;;;48.13;14.95;;;18.60;61.80;;;;;;5108853;28;20111;-72
2021/01/15 12:00:09;;;;;;;54.72;18.63;;;18.60;64.30;;;;;;5106626;28;20020;-73
2021/01/15 12:02:34;;;;;;;52.90;16.42;;;18.60;66.50;;;;;;5088353;28;20071;-77
2021/01/15 12:05:00;;;;;;;48.15;15.70;;;18.70;65.30;;;;;;5088908;28;20044;-76
2021/01/15 12:07:28;;;;;;;59.50;15.35;;;18.70;63.10;;;;;;5088807;28;20590;-70
2021/01/15 12:09:54;;;;;;;68.13;14.73;;;18.70;62.30;;;;;;5077095;28;20016;-71
2021/01/15 12:12:20;;;;;;;45.42;14.38;;;18.80;62.10;;;;;;5102568;28;20039;-70
2021/01/15 12:14:45;;;;;;;49.17;13.10;;;18.80;59.70;;;;;;5087927;28;20088;-72
2021/01/15 12:17:11;;;;;;;37.45;13.07;;;18.80;59.70;;;;;;5103332;28;20050;-71
2021/01/15 12:19:36;;;;;;;44.85;12.05;;;18.70;59.10;;;;;;5108259;28;20031;-71
2021/01/15 12:22:02;;;;;;;34.58;11.02;;;18.70;58.70;;;;;;5108534;28;20052;-73
2021/01/15 12:24:27;;;;;;;45.50;11.55;;;18.70;58.30;;;;;;5108589;28;20028;-71
2021/01/15 12:26:58;;;;;;;23.75;10.55;;;18.60;58.70;;;;;;5107941;28;20020;-71
2021/01/15 12:29:24;;;;;;;33.05;10.00;;;18.60;59.30;;;;;;5108307;28;20403;-71
2021/01/15 12:31:54;;;;;;;38.17;10.82;;;18.60;58.60;;;;;;5107959;28;20027;-71
2021/01/15 12:34:19;;;;;;;29.17;8.80;;;18.70;58.30;;;;;;5108078;28;20070;-71
2021/01/15 12:36:45;;;;;;;29.63;8.65;;;18.70;58.00;;;;;;5107882;28;20028;-71
2021/01/15 12:39:11;;;;;;;25.80;8.18;;;18.70;57.70;;;;;;5107767;28;20024;-69
2021/01/15 12:41:36;;;;;;;30.45;8.60;;;18.80;57.50;;;;;;5107697;28;20095;-71
2021/01/15 12:44:02;;;;;;;29.08;7.93;;;18.80;57.40;;;;;;5107550;28;20016;-71
2021/01/15 12:46:29;;;;;;;24.58;7.57;;;18.90;57.10;;;;;;5108291;28;20036;-71
2021/01/15 12:48:54;;;;;;;29.55;7.70;;;18.90;56.90;;;;;;5107802;28;20031;-71
2021/01/15 12:51:20;;;;;;;23.20;6.68;;;19.00;56.70;;;;;;5107851;28;20395;-70
2021/01/15 12:53:46;;;;;;;23.95;6.78;;;19.00;56.40;;;;;;5107546;28;20126;-71
2021/01/15 12:56:16;;;;;;;26.20;6.45;;;19.10;56.70;;;;;;5107979;28;20532;-71
2021/01/15 12:58:41;;;;;;;21.35;6.53;;;19.20;56.20;;;;;;5107436;28;20080;-71
2021/01/15 13:01:07;;;;;;;17.90;6.07;;;19.30;56.20;;;;;;5105612;28;20491;-72
2021/01/15 13:03:33;;;;;;;15.70;5.82;;;19.30;56.30;;;;;;5102621;28;20102;-73
2021/01/15 13:05:59;;;;;;;18.70;5.50;;;19.30;54.30;;;;;;5079434;28;20103;-72
2021/01/15 13:08:24;;;;;;;16.55;6.28;;;19.30;53.50;;;;;;5093715;28;20028;-71
2021/01/15 13:10:50;;;;;;;16.92;4.65;;;19.20;53.50;;;;;;5093375;28;20020;-72
2021/01/15 13:13:15;;;;;;;9.65;5.15;;;19.30;52.90;;;;;;5074261;28;20141;-73
2021/01/15 13:15:41;;;;;;;13.68;5.25;;;19.40;52.20;;;;;;5073738;28;20025;-72
2021/01/15 13:18:07;;;;;;;11.18;4.97;;;19.60;51.80;;;;;;5074213;28;20021;-73
2021/01/15 13:20:33;;;;;;;9.90;5.13;;;19.70;51.00;;;;;;5073607;28;20024;-73
2021/01/15 13:23:04;;;;;;;14.05;4.43;;;20.00;50.40;;;;;;5073998;28;20025;-73
2021/01/15 13:25:31;;;;;;;14.80;5.00;;;20.40;49.50;;;;;;5073891;28;20046;-73
2021/01/15 13:27:57;;;;;;;10.25;4.30;;;20.40;48.60;;;;;;5073331;28;20382;-72
2021/01/15 13:30:23;;;;;;;11.68;4.30;;;20.30;48.70;;;;;;5073638;28;20028;-75
2021/01/15 13:32:49;;;;;;;8.85;4.30;;;20.30;49.20;;;;;;5073137;28;20107;-73
2021/01/15 13:35:15;;;;;;;10.48;4.43;;;20.30;49.10;;;;;;5073325;28;20103;-72
2021/01/15 13:37:41;;;;;;;8.25;3.63;;;20.40;48.90;;;;;;5080471;28;20484;-72
2021/01/15 13:40:08;;;;;;;13.02;4.45;;;20.40;49.00;;;;;;5093464;28;20383;-73
2021/01/15 13:42:35;;;;;;;9.95;4.47;;;20.50;48.60;;;;;;5093294;28;20057;-72
2021/01/15 13:45:02;;;;;;;8.30;4.00;;;20.60;48.50;;;;;;5093731;28;20031;-72
2021/01/15 13:47:28;;;;;;;9.68;4.40;;;20.80;47.90;;;;;;5093660;28;20056;-72
2021/01/15 13:49:54;;;;;;;9.60;4.10;;;20.90;47.60;;;;;;5093439;28;20058;-72
2021/01/15 13:52:19;;;;;;;6.47;4.10;;;21.00;47.10;;;;;;5093585;28;20055;-72
2021/01/15 13:54:45;;;;;;;8.77;4.05;;;21.00;46.90;;;;;;5086436;28;20043;-71
2021/01/15 13:57:10;;;;;;;9.82;3.85;;;21.00;46.60;;;;;;5092344;28;20016;-72
2021/01/15 13:59:36;;;;;;;7.90;3.47;;;21.10;46.70;;;;;;5081135;28;20051;-71
2021/01/15 14:02:01;;;;;;;6.65;3.38;;;21.20;46.40;;;;;;5092509;28;20373;-72
2021/01/15 14:04:27;;;;;;;9.38;3.92;;;21.30;46.10;;;;;;5092061;28;20074;-69
2021/01/15 14:06:53;;;;;;;6.80;3.90;;;21.40;46.60;;;;;;5091456;28;20107;-72
2021/01/15 14:09:18;;;;;;;8.82;3.67;;;21.40;45.90;;;;;;5082366;28;20028;-71
2021/01/15 14:11:44;;;;;;;7.80;3.70;;;21.40;45.90;;;;;;5089844;28;20439;-72
2021/01/15 14:14:09;;;;;;;7.47;3.30;;;21.50;45.70;;;;;;5091984;28;20074;-72
2021/01/15 14:16:35;;;;;;;7.38;3.97;;;21.40;45.60;;;;;;5091379;28;20028;-71
2021/01/15 14:19:00;;;;;;;5.13;3.45;;;21.50;45.70;;;;;;5092375;28;20388;-70
2021/01/15 14:21:26;;;;;;;8.80;4.00;;;21.50;45.80;;;;;;5091964;28;20387;-71
2021/01/15 14:23:52;;;;;;;5.68;3.58;;;21.60;45.40;;;;;;5091641;28;20506;-71
2021/01/15 14:26:17;;;;;;;6.00;3.80;;;21.60;45.50;;;;;;5091698;28;20062;-71
2021/01/15 14:28:43;;;;;;;7.28;4.18;;;21.60;45.30;;;;;;5091499;28;20016;-71
2021/01/15 14:31:09;;;;;;;9.40;4.07;;;21.70;45.20;;;;;;5091781;28;20024;-70
2021/01/15 14:33:34;;;;;;;7.55;4.10;;;21.70;45.00;;;;;;5091358;28;20024;-72
2021/01/15 14:36:00;;;;;;;5.82;3.63;;;21.70;44.80;;;;;;5091836;28;20498;-72
2021/01/15 14:38:25;;;;;;;9.50;4.32;;;21.60;45.30;;;;;;5091289;28;20027;-71
2021/01/15 14:40:51;;;;;;;6.60;4.55;;;21.50;44.80;;;;;;5090985;28;20382;-71
2021/01/15 14:43:17;;;;;;;6.35;3.53;;;21.40;44.70;;;;;;5091471;28;20031;-71
2021/01/15 14:45:42;;;;;;;10.15;4.00;;;21.40;44.80;;;;;;5091313;28;20031;-71
2021/01/15 14:48:08;;;;;;;7.53;3.42;;;21.20;45.00;;;;;;5091595;28;20020;-71
2021/01/15 14:50:34;;;;;;;5.35;3.53;;;21.20;45.10;;;;;;5091695;28;20385;-72
2021/01/15 14:52:59;;;;;;;7.53;4.07;;;21.10;45.30;;;;;;5091955;28;20016;-71
2021/01/15 14:55:31;;;;;;;5.25;3.30;;;21.00;45.20;;;;;;5091940;28;20085;-71
2021/01/15 14:57:58;;;;;;;6.18;4.22;;;21.00;45.20;;;;;;5091613;28;20032;-70
2021/01/15 15:00:24;;;;;;;5.90;3.53;;;21.00;45.30;;;;;;5091734;28;20020;-71
2021/01/15 15:02:50;;;;;;;6.45;4.00;;;20.90;45.40;;;;;;5073385;28;20024;-70
2021/01/15 15:05:16;;;;;;;7.43;4.03;;;20.90;45.50;;;;;;5091747;28;20016;-70
2021/01/15 15:07:49;;;;;;;7.55;3.90;;;20.90;45.60;;;;;;5090691;28;20040;-71
2021/01/15 15:10:18;;;;;;;7.55;3.55;;;20.90;45.70;;;;;;5091638;28;20032;-70
2021/01/15 15:12:51;;;;;;;5.85;3.47;;;20.80;45.80;;;;;;5091471;28;20412;-73
2021/01/15 15:15:17;;;;;;;5.47;3.17;;;20.80;46.20;;;;;;5091809;28;20062;-71
2021/01/15 15:17:46;;;;;;;6.80;3.22;;;20.80;46.00;;;;;;5091274;28;20056;-72
2021/01/15 15:20:13;;;;;;;6.32;3.72;;;20.70;46.00;;;;;;5090809;28;20036;-72
2021/01/15 15:22:39;;;;;;;6.78;3.83;;;20.70;46.50;;;;;;5090750;28;20020;-71
2021/01/15 15:25:05;;;;;;;5.72;3.40;;;20.60;46.00;;;;;;5091581;28;20065;-71
2021/01/15 15:27:31;;;;;;;7.22;3.70;;;20.50;46.00;;;;;;5091787;28;20043;-71
2021/01/15 15:29:57;;;;;;;5.55;3.63;;;20.50;46.10;;;;;;5091612;28;20024;-72
2021/01/15 15:32:23;;;;;;;6.53;3.47;;;20.50;47.20;;;;;;5087698;28;20028;-72
2021/01/15 15:34:49;;;;;;;6.32;3.60;;;20.40;46.80;;;;;;5091200;28;20553;-71
2021/01/15 15:37:15;;;;;;;5.82;3.75;;;20.50;46.60;;;;;;5091433;28;20099;-71
2021/01/15 15:39:41;;;;;;;7.22;3.90;;;20.40;46.70;;;;;;5089871;28;20480;-70
2021/01/15 15:42:08;;;;;;;8.50;4.07;;;20.40;47.60;;;;;;5091496;28;20107;-71
2021/01/15 15:44:33;;;;;;;6.35;3.53;;;20.40;47.30;;;;;;5091135;28;20020;-72
2021/01/15 15:47:00;;;;;;;5.90;4.20;;;20.40;47.40;;;;;;5091779;28;20440;-71
2021/01/15 15:49:26;;;;;;;7.65;4.07;;;20.30;47.40;;;;;;5090228;28;20038;-70
2021/01/15 15:51:52;;;;;;;7.22;3.90;;;20.30;47.40;;;;;;5087388;28;20133;-70
2021/01/15 15:54:18;;;;;;;10.15;4.35;;;20.20;47.50;;;;;;5080823;28;20132;-70
2021/01/15 15:56:48;;;;;;;9.93;4.70;;;20.20;48.20;;;;;;5090225;28;20024;-71
2021/01/15 15:59:14;;;;;;;9.25;4.53;;;20.10;47.60;;;;;;5091071;28;20032;-70
2021/01/15 16:01:40;;;;;;;9.10;4.78;;;20.10;47.50;;;;;;5090440;28;20024;-69
2021/01/15 16:04:06;;;;;;;7.68;4.63;;;20.10;47.60;;;;;;5090750;28;20103;-70
2021/01/15 16:06:32;;;;;;;8.35;5.00;;;20.10;47.60;;;;;;5091024;28;20086;-72
2021/01/15 16:08:57;;;;;;;7.53;4.80;;;20.00;47.50;;;;;;5091336;28;20061;-71
2021/01/15 16:11:28;;;;;;;6.78;4.43;;;20.00;47.50;;;;;;5091012;28;20032;-70
2021/01/15 16:13:55;;;;;;;7.53;4.50;;;19.90;47.60;;;;;;5090712;28;20123;-70
2021/01/15 16:16:20;;;;;;;7.88;4.45;;;19.90;47.50;;;;;;5090750;28;20020;-70
2021/01/15 16:18:47;;;;;;;6.63;4.68;;;19.90;47.50;;;;;;5089871;28;20034;-71
2021/01/15 16:21:12;;;;;;;6.50;4.57;;;20.00;47.60;;;;;;5090844;28;20089;-71
2021/01/15 16:23:38;;;;;;;6.07;3.67;;;20.00;47.60;;;;;;5090830;28;20020;-70
2021/01/15 16:26:04;;;;;;;9.95;4.50;;;20.00;47.40;;;;;;5090961;28;20028;-70
2021/01/15 16:28:29;;;;;;;8.07;4.40;;;19.90;47.40;;;;;;5091053;28;20431;-71